Time;durP1;ratioP1;P1;durP2;ratioP2;P2;SDS_P1;SDS_P2;PMS_P1;PMS_P2;Temp;Humidity;BMP_temperature;BMP_pressure;BME280_temperature;BME280_humidity;BME280_pressure;Samples;Min_cycle;Max_cycle;Signal;HPM_P1;HPM_P2
2024/03/14 00:01:56;;;;;;;23.75;8.40;;;;;;;;;;7414261;19;19910;-80
2024/03/14 00:04:42;;;;;;;30.60;8.35;;;;;;;;;;7413629;19;19933;-80
2024/03/14 00:07:29;;;;;;;28.50;7.63;;;;;;;;;;7414392;19;19919;-80
2024/03/14 00:10:17;;;;;;;26.50;7.95;;;;;;;;;;7414875;19;19926;-80
2024/03/14 00:13:01;;;;;;;23.20;9.35;;;;;;;;;;7413276;19;19960;-80
2024/03/14 00:15:45;;;;;;;21.63;8.07;;;;;;;;;;7393592;19;20331;-80
2024/03/14 00:18:32;;;;;;;19.13;7.22;;;;;;;;;;7407299;19;19911;-80
2024/03/14 00:21:17;;;;;;;16.17;7.32;;;;;;;;;;7405323;19;19915;-80
2024/03/14 00:24:03;;;;;;;21.33;7.97;;;;;;;;;;7403337;19;19918;-80
2024/03/14 00:26:51;;;;;;;20.88;8.05;;;;;;;;;;7405958;19;19942;-80
2024/03/14 00:29:38;;;;;;;18.85;6.95;;;;;;;;;;7406092;19;19918;-80
2024/03/14 00:32:24;;;;;;;20.42;8.52;;;;;;;;;;7407911;19;19974;-80
2024/03/14 00:35:12;;;;;;;15.90;7.57;;;;;;;;;;7402066;19;19918;-80
2024/03/14 00:37:57;;;;;;;18.60;7.00;;;;;;;;;;7403655;19;19933;-80
2024/03/14 00:40:43;;;;;;;18.23;7.47;;;;;;;;;;7404660;19;19938;-80
2024/03/14 00:43:32;;;;;;;21.08;6.65;;;;;;;;;;7406651;19;19922;-80
2024/03/14 00:46:18;;;;;;;14.38;6.40;;;;;;;;;;7409757;19;20150;-80
2024/03/14 00:49:04;;;;;;;12.48;5.22;;;;;;;;;;7410707;19;19919;-80
2024/03/14 00:51:51;;;;;;;14.00;6.22;;;;;;;;;;7413204;19;20272;-80
2024/03/14 00:54:38;;;;;;;14.32;5.85;;;;;;;;;;7426204;19;19917;-80
2024/03/14 00:57:25;;;;;;;13.30;5.93;;;;;;;;;;7424805;19;19914;-80
2024/03/14 01:00:13;;;;;;;14.27;5.68;;;;;;;;;;7425349;19;19915;-80
2024/03/14 01:03:00;;;;;;;12.88;5.28;;;;;;;;;;7422893;19;19931;-80
2024/03/14 01:05:47;;;;;;;12.88;6.03;;;;;;;;;;7416737;19;20265;-80
2024/03/14 01:08:31;;;;;;;12.60;5.32;;;;;;;;;;7413276;19;19948;-80
2024/03/14 01:11:19;;;;;;;10.15;4.95;;;;;;;;;;7415515;19;19914;-80
2024/03/14 01:14:06;;;;;;;16.73;6.07;;;;;;;;;;7412290;19;19922;-80
2024/03/14 01:16:53;;;;;;;16.95;6.18;;;;;;;;;;7410265;19;19924;-80
2024/03/14 01:19:40;;;;;;;19.25;6.55;;;;;;;;;;7413559;19;19919;-80
2024/03/14 01:22:24;;;;;;;16.85;6.05;;;;;;;;;;7411764;19;19985;-80
2024/03/14 01:25:09;;;;;;;20.67;6.10;;;;;;;;;;7414839;19;19910;-80
2024/03/14 01:27:55;;;;;;;14.77;5.47;;;;;;;;;;7413308;19;19949;-80
2024/03/14 01:30:42;;;;;;;25.65;6.22;;;;;;;;;;7414596;19;19922;-80
2024/03/14 01:33:30;;;;;;;18.42;5.70;;;;;;;;;;7415944;19;19977;-80
2024/03/14 01:36:17;;;;;;;16.48;5.47;;;;;;;;;;7412182;19;19922;-80
2024/03/14 01:39:04;;;;;;;20.30;6.10;;;;;;;;;;7413721;19;19918;-80
2024/03/14 01:41:52;;;;;;;46.83;7.68;;;;;;;;;;7410556;19;19927;-80
2024/03/14 01:44:57;;;;;;;17.38;5.63;;;;;;;;;;7413423;19;20257;-80
2024/03/14 01:47:41;;;;;;;18.60;6.07;;;;;;;;;;7408640;19;19919;-80
2024/03/14 01:50:31;;;;;;;13.93;4.82;;;;;;;;;;7412371;19;19918;-80
2024/03/14 01:53:16;;;;;;;21.38;5.80;;;;;;;;;;7409853;19;19922;-80
2024/03/14 01:56:01;;;;;;;39.85;7.88;;;;;;;;;;7405412;19;19921;-80
2024/03/14 01:58:47;;;;;;;43.28;6.40;;;;;;;;;;7410839;19;19930;-80
2024/03/14 02:01:34;;;;;;;19.23;6.05;;;;;;;;;;7410693;19;20002;-80
2024/03/14 02:04:23;;;;;;;13.85;5.80;;;;;;;;;;7412290;19;20340;-80
2024/03/14 02:07:13;;;;;;;11.82;5.18;;;;;;;;;;7409703;19;19930;-80
2024/03/14 02:09:58;;;;;;;11.73;5.82;;;;;;;;;;7408897;19;19930;-80
2024/03/14 02:12:47;;;;;;;13.43;4.95;;;;;;;;;;7412552;19;19935;-80
2024/03/14 02:15:35;;;;;;;11.23;4.63;;;;;;;;;;7408508;19;19926;-80
2024/03/14 02:18:22;;;;;;;13.30;4.82;;;;;;;;;;7408263;19;20002;-80
2024/03/14 02:21:06;;;;;;;10.65;4.75;;;;;;;;;;7409874;19;19922;-80
2024/03/14 02:23:54;;;;;;;11.35;4.65;;;;;;;;;;7408860;19;20329;-80
2024/03/14 02:26:42;;;;;;;11.63;5.20;;;;;;;;;;7405652;19;19937;-80
2024/03/14 02:29:29;;;;;;;11.20;4.63;;;;;;;;;;7410055;19;19915;-80
2024/03/14 02:32:13;;;;;;;9.70;4.82;;;;;;;;;;7410914;19;19937;-80
2024/03/14 02:34:57;;;;;;;15.18;4.90;;;;;;;;;;7409700;19;19924;-80
2024/03/14 02:37:44;;;;;;;12.65;4.47;;;;;;;;;;7407671;19;19920;-80
2024/03/14 02:40:36;;;;;;;11.65;4.30;;;;;;;;;;7410365;19;20358;-80
2024/03/14 02:43:22;;;;;;;9.45;4.50;;;;;;;;;;7405031;19;20021;-80
2024/03/14 02:46:08;;;;;;;13.05;4.63;;;;;;;;;;7409353;19;19955;-80
2024/03/14 02:48:52;;;;;;;9.27;4.38;;;;;;;;;;7409651;19;19978;-80
2024/03/14 02:51:40;;;;;;;9.40;4.10;;;;;;;;;;7410944;19;19918;-80
2024/03/14 02:54:30;;;;;;;11.13;4.45;;;;;;;;;;7407432;19;19926;-80
2024/03/14 02:57:17;;;;;;;8.90;4.20;;;;;;;;;;7405188;19;19914;-80
2024/03/14 03:00:01;;;;;;;9.05;4.13;;;;;;;;;;7407491;19;19937;-80
2024/03/14 03:02:53;;;;;;;11.05;3.90;;;;;;;;;;7409088;19;19911;-80
2024/03/14 03:05:38;;;;;;;11.80;4.57;;;;;;;;;;7405185;19;20365;-80
2024/03/14 03:08:24;;;;;;;8.90;3.95;;;;;;;;;;7404939;19;19918;-80
2024/03/14 03:11:09;;;;;;;8.05;3.90;;;;;;;;;;7407372;19;19949;-80
2024/03/14 03:13:56;;;;;;;9.18;4.35;;;;;;;;;;7409563;19;20326;-80
2024/03/14 03:16:41;;;;;;;9.43;4.32;;;;;;;;;;7405616;19;19931;-80
2024/03/14 03:19:28;;;;;;;9.55;4.50;;;;;;;;;;7408184;19;19919;-80
2024/03/14 03:22:14;;;;;;;12.13;4.70;;;;;;;;;;7407238;19;19918;-80
2024/03/14 03:24:56;;;;;;;9.45;4.20;;;;;;;;;;7407440;19;20241;-80
2024/03/14 03:27:46;;;;;;;12.20;3.85;;;;;;;;;;7404272;19;19919;-80
2024/03/14 03:30:35;;;;;;;22.02;4.50;;;;;;;;;;7407679;19;19922;-80
2024/03/14 03:33:23;;;;;;;12.15;4.72;;;;;;;;;;7403879;19;19918;-80
2024/03/14 03:36:05;;;;;;;14.00;4.80;;;;;;;;;;7408489;19;19919;-80
2024/03/14 03:38:50;;;;;;;27.83;5.47;;;;;;;;;;7405070;19;19925;-80
2024/03/14 03:41:32;;;;;;;20.17;4.65;;;;;;;;;;7408066;19;20552;-80
2024/03/14 03:44:20;;;;;;;19.42;4.32;;;;;;;;;;7404013;19;19946;-80
2024/03/14 03:47:04;;;;;;;11.20;3.95;;;;;;;;;;7405838;19;19902;-80
2024/03/14 03:49:49;;;;;;;35.97;5.40;;;;;;;;;;7405194;19;19942;-80
2024/03/14 03:52:35;;;;;;;16.42;4.47;;;;;;;;;;7407262;19;19922;-80
2024/03/14 03:55:21;;;;;;;32.75;5.50;;;;;;;;;;7404259;19;19929;-80
2024/03/14 03:58:06;;;;;;;28.02;4.95;;;;;;;;;;7403530;19;19915;-80
2024/03/14 04:00:52;;;;;;;20.23;4.10;;;;;;;;;;7406377;19;19941;-80
2024/03/14 04:03:40;;;;;;;27.27;4.72;;;;;;;;;;7406376;19;19936;-80
2024/03/14 04:06:27;;;;;;;;;;;;;;;;;;7405682;19;19923;-80
2024/03/14 04:09:14;;;;;;;23.63;4.18;;;;;;;;;;7404762;19;19942;-80
2024/03/14 04:11:59;;;;;;;15.45;4.40;;;;;;;;;;7406194;19;19946;-80
2024/03/14 04:14:46;;;;;;;21.38;4.28;;;;;;;;;;7408984;19;19915;-80
2024/03/14 04:17:31;;;;;;;15.95;4.10;;;;;;;;;;7405051;19;19932;-80
2024/03/14 04:20:23;;;;;;;13.10;4.05;;;;;;;;;;7417370;19;19915;-80
2024/03/14 04:23:08;;;;;;;12.93;3.95;;;;;;;;;;7411189;19;19915;-80
2024/03/14 04:25:53;;;;;;;15.30;4.20;;;;;;;;;;7415266;19;19948;-80
2024/03/14 04:28:37;;;;;;;12.57;4.50;;;;;;;;;;7412081;19;19934;-80
2024/03/14 04:31:24;;;;;;;14.10;4.55;;;;;;;;;;7414635;19;20397;-80
2024/03/14 04:34:11;;;;;;;14.48;4.93;;;;;;;;;;7414320;19;19935;-80
2024/03/14 04:36:58;;;;;;;18.52;4.85;;;;;;;;;;7411899;19;19922;-80
2024/03/14 04:39:43;;;;;;;16.17;5.05;;;;;;;;;;7415153;19;19928;-80
2024/03/14 04:42:28;;;;;;;24.15;5.50;;;;;;;;;;7413007;19;19923;-80
2024/03/14 04:45:17;;;;;;;18.80;4.68;;;;;;;;;;7415225;19;20738;-80
2024/03/14 04:48:03;;;;;;;18.92;5.05;;;;;;;;;;7412305;19;19922;-80
2024/03/14 04:50:49;;;;;;;19.48;5.13;;;;;;;;;;7414235;19;20338;-80
2024/03/14 04:53:39;;;;;;;23.42;4.80;;;;;;;;;;7415903;19;19929;-80
2024/03/14 04:56:23;;;;;;;20.67;5.47;;;;;;;;;;7412824;19;19922;-80
2024/03/14 04:59:09;;;;;;;18.67;4.45;;;;;;;;;;7412177;19;19928;-81
2024/03/14 05:01:53;;;;;;;28.42;5.85;;;;;;;;;;7412055;19;19921;-81
2024/03/14 05:04:42;;;;;;;18.20;4.93;;;;;;;;;;7410990;19;19930;-81
2024/03/14 05:07:30;;;;;;;18.85;5.07;;;;;;;;;;7409065;19;19990;-81
2024/03/14 05:10:19;;;;;;;18.25;5.10;;;;;;;;;;7412679;19;19923;-81
2024/03/14 05:13:06;;;;;;;22.27;5.95;;;;;;;;;;7412090;19;19930;-81
2024/03/14 05:15:50;;;;;;;24.55;5.68;;;;;;;;;;7406644;19;19915;-81
2024/03/14 05:18:35;;;;;;;23.60;5.85;;;;;;;;;;7408499;19;20503;-81
2024/03/14 05:21:31;;;;;;;25.55;6.03;;;;;;;;;;7411915;19;19918;-81
2024/03/14 05:24:18;;;;;;;30.05;5.53;;;;;;;;;;7409515;19;19926;-81
2024/03/14 05:27:06;;;;;;;21.92;5.43;;;;;;;;;;7406755;19;20342;-81
2024/03/14 05:29:53;;;;;;;19.38;5.60;;;;;;;;;;7410856;19;19914;-81
2024/03/14 05:32:39;;;;;;;22.33;5.65;;;;;;;;;;7414141;19;19922;-81
2024/03/14 05:35:27;;;;;;;22.48;5.90;;;;;;;;;;7411412;19;19925;-81
2024/03/14 05:38:14;;;;;;;25.88;5.95;;;;;;;;;;7407706;19;19948;-81
2024/03/14 05:41:01;;;;;;;21.02;5.82;;;;;;;;;;7413400;19;19922;-81
2024/03/14 05:43:51;;;;;;;17.52;6.03;;;;;;;;;;7410289;19;19915;-81
2024/03/14 05:46:35;;;;;;;20.83;6.72;;;;;;;;;;7414016;19;19918;-80
2024/03/14 05:49:24;;;;;;;16.50;6.13;;;;;;;;;;7414272;19;19940;-81
2024/03/14 05:52:10;;;;;;;22.42;6.97;;;;;;;;;;7413426;19;20321;-81
2024/03/14 05:54:56;;;;;;;23.65;6.18;;;;;;;;;;7412899;19;19925;-81
2024/03/14 05:57:43;;;;;;;18.35;6.15;;;;;;;;;;7411287;19;19922;-81
2024/03/14 06:00:32;;;;;;;14.63;5.45;;;;;;;;;;7412351;19;19918;-80
2024/03/14 06:03:16;;;;;;;17.42;5.88;;;;;;;;;;7411100;19;19999;-80
2024/03/14 06:06:01;;;;;;;19.98;5.55;;;;;;;;;;7412388;19;19921;-80
2024/03/14 06:08:45;;;;;;;17.75;5.82;;;;;;;;;;7417117;19;19917;-80
2024/03/14 06:11:32;;;;;;;24.92;6.03;;;;;;;;;;7414517;19;19911;-80
2024/03/14 06:14:16;;;;;;;18.42;5.80;;;;;;;;;;7412286;19;20002;-80
2024/03/14 06:17:04;;;;;;;37.33;7.53;;;;;;;;;;7406877;19;19926;-80
2024/03/14 06:19:48;;;;;;;20.23;6.43;;;;;;;;;;7411738;19;19941;-80
2024/03/14 06:22:36;;;;;;;32.85;6.72;;;;;;;;;;7410394;19;20328;-80
2024/03/14 06:25:21;;;;;;;29.63;5.75;;;;;;;;;;7409327;19;19918;-80
2024/03/14 06:28:09;;;;;;;26.08;7.03;;;;;;;;;;7406286;19;20253;-80
2024/03/14 06:30:53;;;;;;;24.33;6.85;;;;;;;;;;7409021;19;19918;-80
2024/03/14 06:33:43;;;;;;;26.02;7.18;;;;;;;;;;7408921;19;19970;-81
2024/03/14 06:36:30;;;;;;;16.60;6.20;;;;;;;;;;7407324;19;19958;-80
2024/03/14 06:39:17;;;;;;;24.45;7.10;;;;;;;;;;7407622;19;19939;-81
2024/03/14 06:42:03;;;;;;;18.25;6.20;;;;;;;;;;7404773;19;19922;-81
2024/03/14 06:44:50;;;;;;;32.97;7.60;;;;;;;;;;7405655;19;19918;-81
2024/03/14 06:47:38;;;;;;;29.30;9.73;;;;;;;;;;7412928;19;20358;-81
2024/03/14 06:50:25;;;;;;;21.98;7.70;;;;;;;;;;7412602;19;19921;-80
2024/03/14 06:53:10;;;;;;;18.45;7.63;;;;;;;;;;7414806;19;19915;-80
2024/03/14 06:55:54;;;;;;;15.57;5.88;;;;;;;;;;7410074;19;19930;-80
2024/03/14 06:58:38;;;;;;;20.23;6.40;;;;;;;;;;7412959;19;19907;-80
2024/03/14 07:01:23;;;;;;;15.88;6.30;;;;;;;;;;7417133;19;19971;-80
2024/03/14 07:04:10;;;;;;;18.55;6.78;;;;;;;;;;7417185;19;19918;-80
2024/03/14 07:06:58;;;;;;;16.13;7.30;;;;;;;;;;7409655;19;19937;-80
2024/03/14 07:09:48;;;;;;;15.50;6.45;;;;;;;;;;7411790;19;19915;-80
2024/03/14 07:12:33;;;;;;;12.25;5.45;;;;;;;;;;7410224;19;19937;-80
2024/03/14 07:15:20;;;;;;;8.32;4.35;;;;;;;;;;7410713;19;19930;-79
2024/03/14 07:18:08;;;;;;;9.10;4.30;;;;;;;;;;7412756;19;20358;-79
2024/03/14 07:20:54;;;;;;;11.45;4.60;;;;;;;;;;7411230;19;19919;-79
2024/03/14 07:23:47;;;;;;;9.50;4.18;;;;;;;;;;7410242;19;19982;-79
2024/03/14 07:26:36;;;;;;;11.50;4.63;;;;;;;;;;7411777;19;19942;-79
2024/03/14 07:29:21;;;;;;;11.50;4.07;;;;;;;;;;7414113;19;19934;-79
2024/03/14 07:32:09;;;;;;;9.50;4.38;;;;;;;;;;7414439;19;20241;-79
2024/03/14 07:34:53;;;;;;;11.07;4.30;;;;;;;;;;7413826;19;19918;-79
2024/03/14 07:37:44;;;;;;;7.78;3.72;;;;;;;;;;7408746;19;19922;-77
2024/03/14 07:40:35;;;;;;;10.45;4.53;;;;;;;;;;7404623;19;19990;-77
2024/03/14 07:43:21;;;;;;;8.70;4.00;;;;;;;;;;7404110;19;20250;-78
2024/03/14 07:46:06;;;;;;;11.38;4.00;;;;;;;;;;7405366;19;19922;-78
2024/03/14 07:48:55;;;;;;;11.10;4.63;;;;;;;;;;7405061;19;19977;-78
2024/03/14 07:51:42;;;;;;;11.15;4.38;;;;;;;;;;7405047;19;19907;-78
2024/03/14 07:54:29;;;;;;;10.40;4.10;;;;;;;;;;7405574;19;19915;-78
2024/03/14 07:57:18;;;;;;;9.15;3.63;;;;;;;;;;7403611;19;19926;-78
2024/03/14 08:00:08;;;;;;;8.60;4.15;;;;;;;;;;7404692;19;19921;-78
2024/03/14 08:02:58;;;;;;;8.15;4.30;;;;;;;;;;7406056;19;20341;-77
2024/03/14 08:05:50;;;;;;;7.80;3.55;;;;;;;;;;7403920;19;20277;-77
2024/03/14 08:08:35;;;;;;;7.68;3.35;;;;;;;;;;7406006;19;20326;-78
2024/03/14 08:11:22;;;;;;;9.25;4.07;;;;;;;;;;7401701;19;19918;-77
2024/03/14 08:14:11;;;;;;;11.32;4.78;;;;;;;;;;7404675;19;19923;-78
2024/03/14 08:16:57;;;;;;;9.57;4.22;;;;;;;;;;7401452;19;20200;-78
2024/03/14 08:19:41;;;;;;;11.43;4.57;;;;;;;;;;7404145;19;19915;-78
2024/03/14 08:22:29;;;;;;;8.13;3.85;;;;;;;;;;7403529;19;19922;-78
2024/03/14 08:25:19;;;;;;;8.00;4.38;;;;;;;;;;7400431;19;19922;-78
2024/03/14 08:28:06;;;;;;;6.57;3.80;;;;;;;;;;7405031;19;19911;-78
2024/03/14 08:30:58;;;;;;;6.90;4.30;;;;;;;;;;7403012;19;19915;-78
2024/03/14 08:33:46;;;;;;;9.60;4.30;;;;;;;;;;7403088;19;19918;-78
2024/03/14 08:36:33;;;;;;;8.75;4.63;;;;;;;;;;7404731;19;19934;-78
2024/03/14 08:39:20;;;;;;;8.52;4.45;;;;;;;;;;7404158;19;20337;-78
2024/03/14 08:42:08;;;;;;;9.98;5.18;;;;;;;;;;7405623;19;19903;-78
2024/03/14 08:44:54;;;;;;;8.52;5.10;;;;;;;;;;7402246;19;19915;-77
2024/03/14 08:47:44;;;;;;;9.90;5.63;;;;;;;;;;7401913;19;19929;-77
2024/03/14 08:50:30;;;;;;;8.65;5.63;;;;;;;;;;7399582;19;19938;-77
2024/03/14 08:53:19;;;;;;;12.25;6.40;;;;;;;;;;7405423;19;19919;-78
2024/03/14 08:56:09;;;;;;;9.45;6.15;;;;;;;;;;7399829;19;19926;-77
2024/03/14 08:58:56;;;;;;;10.48;6.10;;;;;;;;;;7403445;19;19911;-77
2024/03/14 09:01:46;;;;;;;10.07;6.15;;;;;;;;;;7402098;19;19914;-77
2024/03/14 09:04:33;;;;;;;10.55;6.50;;;;;;;;;;7404485;19;19914;-78
2024/03/14 09:07:18;;;;;;;12.32;6.68;;;;;;;;;;7407309;19;19925;-77
2024/03/14 09:10:15;;;;;;;11.23;7.03;;;;;;;;;;7410892;19;20385;-76
2024/03/14 09:13:00;;;;;;;10.95;6.15;;;;;;;;;;7409077;19;19919;-77
2024/03/14 09:15:44;;;;;;;8.35;5.95;;;;;;;;;;7410264;19;20350;-78
2024/03/14 09:18:33;;;;;;;10.90;5.22;;;;;;;;;;7407145;19;19997;-77
2024/03/14 09:21:28;;;;;;;9.98;6.85;;;;;;;;;;7410335;19;19918;-77
2024/03/14 09:24:12;;;;;;;10.32;5.68;;;;;;;;;;7410131;19;19922;-76
2024/03/14 09:26:59;;;;;;;11.68;6.05;;;;;;;;;;7409150;19;19918;-76
2024/03/14 09:29:43;;;;;;;9.50;5.70;;;;;;;;;;7410843;19;19923;-76
2024/03/14 09:32:30;;;;;;;9.98;6.30;;;;;;;;;;7412210;19;19922;-76
2024/03/14 09:35:16;;;;;;;9.18;6.07;;;;;;;;;;7410234;19;19910;-76
2024/03/14 09:38:05;;;;;;;10.50;6.20;;;;;;;;;;7407670;19;20458;-76
2024/03/14 09:40:50;;;;;;;11.00;6.72;;;;;;;;;;7408541;19;19914;-76
2024/03/14 09:43:37;;;;;;;10.50;6.38;;;;;;;;;;7410592;19;19910;-77
2024/03/14 09:46:29;;;;;;;8.85;5.78;;;;;;;;;;7408714;19;19919;-77
2024/03/14 09:49:21;;;;;;;9.00;5.95;;;;;;;;;;7410253;19;19999;-77
2024/03/14 09:52:06;;;;;;;14.93;6.75;;;;;;;;;;7408970;19;19926;-78
2024/03/14 09:54:58;;;;;;;9.30;6.40;;;;;;;;;;7410518;19;20247;-78
2024/03/14 09:57:43;;;;;;;11.10;7.15;;;;;;;;;;7406867;19;19914;-78
2024/03/14 10:00:32;;;;;;;9.93;5.85;;;;;;;;;;7410093;19;19915;-78
2024/03/14 10:03:23;;;;;;;9.32;5.90;;;;;;;;;;7409907;19;19949;-77
2024/03/14 10:06:17;;;;;;;10.55;6.45;;;;;;;;;;7405400;19;19931;-77
2024/03/14 10:09:09;;;;;;;11.75;6.72;;;;;;;;;;7409123;19;20014;-77
2024/03/14 10:12:01;;;;;;;11.48;6.00;;;;;;;;;;7408991;19;20333;-78
2024/03/14 10:14:48;;;;;;;9.98;6.30;;;;;;;;;;7410054;19;19926;-78
2024/03/14 10:17:35;;;;;;;7.47;6.05;;;;;;;;;;7405094;19;19974;-78
2024/03/14 10:20:20;;;;;;;9.95;5.53;;;;;;;;;;7409599;19;19989;-78
2024/03/14 10:23:05;;;;;;;7.20;5.65;;;;;;;;;;7408021;19;19922;-78
2024/03/14 10:25:53;;;;;;;8.18;5.55;;;;;;;;;;7407118;19;19926;-77
2024/03/14 10:28:42;;;;;;;9.20;6.13;;;;;;;;;;7407366;19;19910;-77
2024/03/14 10:31:29;;;;;;;8.98;5.57;;;;;;;;;;7410778;19;19929;-77
2024/03/14 10:34:16;;;;;;;8.82;5.60;;;;;;;;;;7408131;19;19919;-77
2024/03/14 10:37:18;;;;;;;8.95;6.30;;;;;;;;;;7405054;19;19915;-77
2024/03/14 10:40:13;;;;;;;8.20;5.32;;;;;;;;;;7408451;19;20271;-77
2024/03/14 10:43:03;;;;;;;8.68;5.43;;;;;;;;;;7406519;19;19915;-77
2024/03/14 10:45:52;;;;;;;7.55;5.75;;;;;;;;;;7407112;19;19921;-77
2024/03/14 10:48:44;;;;;;;8.38;5.75;;;;;;;;;;7404568;19;19918;-77
2024/03/14 10:51:30;;;;;;;10.27;6.28;;;;;;;;;;7409141;19;20238;-77
2024/03/14 10:54:19;;;;;;;9.88;5.72;;;;;;;;;;7408015;19;19978;-77
2024/03/14 10:57:08;;;;;;;7.05;5.13;;;;;;;;;;7404708;19;20262;-78
2024/03/14 10:59:54;;;;;;;9.77;5.63;;;;;;;;;;7409037;19;20327;-78
2024/03/14 11:02:41;;;;;;;8.93;5.75;;;;;;;;;;7408227;19;19918;-78
2024/03/14 11:05:28;;;;;;;8.35;5.35;;;;;;;;;;7405641;19;19942;-78
2024/03/14 11:08:14;;;;;;;7.70;6.18;;;;;;;;;;7405240;19;19919;-78
2024/03/14 11:11:02;;;;;;;8.73;5.50;;;;;;;;;;7407172;19;19922;-78
2024/03/14 11:13:53;;;;;;;10.07;6.20;;;;;;;;;;7408964;19;20306;-78
2024/03/14 11:16:42;;;;;;;12.45;5.90;;;;;;;;;;7407242;19;19915;-78
2024/03/14 11:19:29;;;;;;;8.50;5.55;;;;;;;;;;7406221;19;19935;-78
2024/03/14 11:22:20;;;;;;;9.65;5.68;;;;;;;;;;7408174;19;19923;-78
2024/03/14 11:25:07;;;;;;;8.80;5.70;;;;;;;;;;7406845;19;19927;-78
2024/03/14 11:27:58;;;;;;;7.45;5.68;;;;;;;;;;7404389;19;20286;-78
2024/03/14 11:30:52;;;;;;;6.95;5.20;;;;;;;;;;7408584;19;19919;-78
2024/03/14 11:33:42;;;;;;;6.93;4.93;;;;;;;;;;7407684;19;19946;-78
2024/03/14 11:36:33;;;;;;;8.45;4.80;;;;;;;;;;7405512;19;19910;-78
2024/03/14 11:39:26;;;;;;;6.25;4.60;;;;;;;;;;7405845;19;20277;-78
2024/03/14 11:42:13;;;;;;;7.40;5.00;;;;;;;;;;7407909;19;19930;-77
2024/03/14 11:44:57;;;;;;;5.53;4.30;;;;;;;;;;7406921;19;19922;-77
2024/03/14 11:47:48;;;;;;;6.15;4.65;;;;;;;;;;7405828;19;19919;-77
2024/03/14 11:50:35;;;;;;;5.63;3.90;;;;;;;;;;7406603;19;19949;-77
2024/03/14 11:53:25;;;;;;;6.03;3.67;;;;;;;;;;7406024;19;19914;-77
2024/03/14 11:56:13;;;;;;;4.85;3.83;;;;;;;;;;7405660;19;20329;-77
2024/03/14 11:58:59;;;;;;;8.88;4.53;;;;;;;;;;7407697;19;20334;-77
2024/03/14 12:01:43;;;;;;;5.72;4.18;;;;;;;;;;7406985;19;20338;-77
2024/03/14 12:04:28;;;;;;;6.07;4.10;;;;;;;;;;7406370;19;19982;-77
2024/03/14 12:07:16;;;;;;;5.53;3.95;;;;;;;;;;7406093;19;19918;-77
2024/03/14 12:10:07;;;;;;;8.73;4.32;;;;;;;;;;7407011;19;19910;-77
2024/03/14 12:12:55;;;;;;;6.10;4.15;;;;;;;;;;7407185;19;20253;-77
2024/03/14 12:15:39;;;;;;;5.75;3.90;;;;;;;;;;7406560;19;19942;-78
2024/03/14 12:18:28;;;;;;;5.18;3.30;;;;;;;;;;7403298;19;19915;-78
2024/03/14 12:21:15;;;;;;;5.68;3.70;;;;;;;;;;7406819;19;19952;-78
2024/03/14 12:24:02;;;;;;;5.88;3.83;;;;;;;;;;7406840;19;20298;-78
2024/03/14 12:26:49;;;;;;;4.85;3.20;;;;;;;;;;7403617;19;19922;-78
2024/03/14 12:29:36;;;;;;;5.70;3.67;;;;;;;;;;7404777;19;19911;-78
2024/03/14 12:32:22;;;;;;;4.43;3.08;;;;;;;;;;7406360;19;20628;-78
2024/03/14 12:35:13;;;;;;;4.68;2.90;;;;;;;;;;7405305;19;20312;-78
2024/03/14 12:38:01;;;;;;;4.82;3.58;;;;;;;;;;7408029;19;19914;-78
2024/03/14 12:40:49;;;;;;;4.38;3.40;;;;;;;;;;7412569;19;19918;-78
2024/03/14 12:43:38;;;;;;;4.72;3.55;;;;;;;;;;7412585;19;19918;-78
2024/03/14 12:46:23;;;;;;;4.07;2.83;;;;;;;;;;7411223;19;20365;-78
2024/03/14 12:49:11;;;;;;;4.75;3.33;;;;;;;;;;7412472;19;19910;-78
2024/03/14 12:51:58;;;;;;;4.20;2.85;;;;;;;;;;7413364;19;19914;-78
2024/03/14 12:54:42;;;;;;;4.28;2.45;;;;;;;;;;7414517;19;19918;-78
2024/03/14 12:57:29;;;;;;;3.58;2.72;;;;;;;;;;7412025;19;19946;-78
2024/03/14 13:00:20;;;;;;;3.47;2.70;;;;;;;;;;7417316;19;19911;-78
2024/03/14 13:03:04;;;;;;;2.63;2.13;;;;;;;;;;7420224;19;20393;-79
2024/03/14 13:05:51;;;;;;;3.80;2.90;;;;;;;;;;7416087;19;19970;-79
2024/03/14 13:08:35;;;;;;;5.80;3.28;;;;;;;;;;7412879;19;19914;-79
2024/03/14 13:11:20;;;;;;;4.68;3.00;;;;;;;;;;7415998;19;19919;-79
2024/03/14 13:14:15;;;;;;;5.40;3.10;;;;;;;;;;7418500;19;19914;-79
2024/03/14 13:17:05;;;;;;;3.20;2.75;;;;;;;;;;7415262;19;19930;-79
2024/03/14 13:19:57;;;;;;;5.00;3.08;;;;;;;;;;7415489;19;19998;-79
2024/03/14 13:22:43;;;;;;;6.05;3.90;;;;;;;;;;7416319;19;19907;-79
2024/03/14 13:25:30;;;;;;;4.00;2.80;;;;;;;;;;7415292;19;20003;-79
2024/03/14 13:28:15;;;;;;;3.40;2.42;;;;;;;;;;7414173;19;20365;-79
2024/03/14 13:31:01;;;;;;;3.70;2.42;;;;;;;;;;7416755;19;20257;-79
2024/03/14 13:33:51;;;;;;;3.97;2.50;;;;;;;;;;7415868;19;19989;-79
2024/03/14 13:36:40;;;;;;;6.63;2.90;;;;;;;;;;7413830;19;20337;-79
2024/03/14 13:39:28;;;;;;;3.60;2.58;;;;;;;;;;7413109;19;19931;-79
2024/03/14 13:42:18;;;;;;;3.97;2.13;;;;;;;;;;7415307;19;19923;-79
2024/03/14 13:45:05;;;;;;;2.67;2.22;;;;;;;;;;7415071;19;20269;-79
2024/03/14 13:47:51;;;;;;;3.97;2.58;;;;;;;;;;7412303;19;19938;-80
2024/03/14 13:50:38;;;;;;;5.80;2.33;;;;;;;;;;7414048;19;19922;-79
2024/03/14 13:53:26;;;;;;;3.42;2.10;;;;;;;;;;7414177;19;19919;-80
2024/03/14 13:56:16;;;;;;;3.75;2.08;;;;;;;;;;7412498;19;19915;-79
2024/03/14 13:59:06;;;;;;;3.17;1.90;;;;;;;;;;7413100;19;20357;-80
2024/03/14 14:01:51;;;;;;;2.47;1.80;;;;;;;;;;7417715;19;20087;-78
2024/03/14 14:04:40;;;;;;;2.95;2.08;;;;;;;;;;7416123;19;19919;-79
2024/03/14 14:07:28;;;;;;;3.55;2.05;;;;;;;;;;7410667;19;20333;-79
2024/03/14 14:10:14;;;;;;;3.15;1.80;;;;;;;;;;7413698;19;19974;-79
2024/03/14 14:12:58;;;;;;;2.03;1.73;;;;;;;;;;7417347;19;19918;-80
2024/03/14 14:15:44;;;;;;;2.35;1.67;;;;;;;;;;7414381;19;19916;-80
2024/03/14 14:18:29;;;;;;;3.67;1.90;;;;;;;;;;7413286;19;19948;-80
2024/03/14 14:21:14;;;;;;;2.80;2.10;;;;;;;;;;7416456;19;20249;-80
2024/03/14 14:24:01;;;;;;;2.92;2.10;;;;;;;;;;7418843;19;19918;-80
2024/03/14 14:26:47;;;;;;;1.98;1.73;;;;;;;;;;7413248;19;19932;-80
2024/03/14 14:29:36;;;;;;;3.20;2.03;;;;;;;;;;7414532;19;20234;-79
2024/03/14 14:32:23;;;;;;;2.72;2.00;;;;;;;;;;7414800;19;19927;-79
2024/03/14 14:35:12;;;;;;;2.13;1.60;;;;;;;;;;7416072;19;19918;-79
2024/03/14 14:37:58;;;;;;;5.13;1.95;;;;;;;;;;7410981;19;19978;-79
2024/03/14 14:40:48;;;;;;;2.17;1.63;;;;;;;;;;7413507;19;19923;-81
2024/03/14 14:43:35;;;;;;;5.35;2.13;;;;;;;;;;7416125;19;19919;-80
2024/03/14 14:46:19;;;;;;;2.63;1.95;;;;;;;;;;7410690;19;19914;-80
2024/03/14 14:49:03;;;;;;;4.25;1.60;;;;;;;;;;7417204;19;19903;-80
2024/03/14 14:51:53;;;;;;;2.40;1.77;;;;;;;;;;7414669;19;19903;-80
2024/03/14 14:54:40;;;;;;;;;;;;;;;;;;7415608;19;19930;-80
2024/03/14 14:57:26;;;;;;;3.55;1.70;;;;;;;;;;7413314;19;19919;-80
2024/03/14 15:00:13;;;;;;;2.08;1.52;;;;;;;;;;7415076;19;19925;-80
2024/03/14 15:03:02;;;;;;;2.30;1.70;;;;;;;;;;7413127;19;19939;-80
2024/03/14 15:05:50;;;;;;;2.03;1.60;;;;;;;;;;7415500;19;19930;-80
2024/03/14 15:08:37;;;;;;;2.17;1.52;;;;;;;;;;7413955;19;19922;-80
2024/03/14 15:11:22;;;;;;;2.85;1.58;;;;;;;;;;7413515;19;19919;-80
2024/03/14 15:14:09;;;;;;;2.55;1.55;;;;;;;;;;7414336;19;19922;-79
2024/03/14 15:16:56;;;;;;;2.13;1.33;;;;;;;;;;7410933;19;20318;-80
2024/03/14 15:19:46;;;;;;;1.80;1.40;;;;;;;;;;7414692;19;19933;-79
2024/03/14 15:22:30;;;;;;;4.50;1.40;;;;;;;;;;7411835;19;20345;-80
2024/03/14 15:25:20;;;;;;;2.15;1.30;;;;;;;;;;7414042;19;19922;-80
2024/03/14 15:28:04;;;;;;;2.17;1.42;;;;;;;;;;7412182;19;20301;-79
2024/03/14 15:30:54;;;;;;;2.00;1.13;;;;;;;;;;7412563;19;19911;-79
2024/03/14 15:33:38;;;;;;;2.15;1.45;;;;;;;;;;7413251;19;19915;-79
2024/03/14 15:36:26;;;;;;;1.98;1.20;;;;;;;;;;7409606;19;19914;-79
2024/03/14 15:39:12;;;;;;;1.40;1.10;;;;;;;;;;7414356;19;19918;-79
2024/03/14 15:41:59;;;;;;;1.83;1.17;;;;;;;;;;7412500;19;19918;-79
2024/03/14 15:44:49;;;;;;;2.67;1.50;;;;;;;;;;7412001;19;20269;-79
2024/03/14 15:47:38;;;;;;;2.40;1.40;;;;;;;;;;7409603;19;19918;-79
2024/03/14 15:50:25;;;;;;;3.97;1.30;;;;;;;;;;7411965;19;19930;-80
2024/03/14 15:53:11;;;;;;;1.70;1.40;;;;;;;;;;7413170;19;20338;-79
2024/03/14 15:56:00;;;;;;;2.90;1.13;;;;;;;;;;7409657;19;19929;-79
2024/03/14 15:58:47;;;;;;;3.42;1.20;;;;;;;;;;7411825;19;19918;-80
2024/03/14 16:01:32;;;;;;;1.83;0.98;;;;;;;;;;7412357;19;19911;-79
2024/03/14 16:04:19;;;;;;;1.70;1.00;;;;;;;;;;7413151;19;19910;-79
2024/03/14 16:07:06;;;;;;;2.50;1.08;;;;;;;;;;7410439;19;19937;-80
2024/03/14 16:09:50;;;;;;;1.45;1.20;;;;;;;;;;7410893;19;19925;-79
2024/03/14 16:12:35;;;;;;;1.27;1.00;;;;;;;;;;7411566;19;19933;-80
2024/03/14 16:15:21;;;;;;;2.20;1.55;;;;;;;;;;7409148;19;19918;-80
2024/03/14 16:18:06;;;;;;;1.42;1.00;;;;;;;;;;7410312;19;19945;-80
2024/03/14 16:20:56;;;;;;;1.35;1.20;;;;;;;;;;7413405;19;19911;-79
2024/03/14 16:23:43;;;;;;;2.65;1.67;;;;;;;;;;7411989;19;19910;-80
2024/03/14 16:26:28;;;;;;;3.53;2.00;;;;;;;;;;7409776;19;19922;-79
2024/03/14 16:29:13;;;;;;;3.90;1.98;;;;;;;;;;7408966;19;19914;-79
2024/03/14 16:31:57;;;;;;;2.25;1.60;;;;;;;;;;7409290;19;20296;-79
2024/03/14 16:34:41;;;;;;;2.47;1.55;;;;;;;;;;7408402;19;19938;-79
2024/03/14 16:37:30;;;;;;;3.05;1.52;;;;;;;;;;7410915;19;19925;-79